Time;durP1;ratioP1;P1;durP2;ratioP2;P2;SDS_P1;SDS_P2;PMS_P1;PMS_P2;Temp;Humidity;BMP_temperature;BMP_pressure;BME280_temperature;BME280_humidity;BME280_pressure;Samples;Min_cycle;Max_cycle;Signal;HPM_P1;HPM_P2
2023/02/28 00:00:15;;;;;;;8.18;4.35;;;;;;;1.66;59.13;101672.94;5072623;28;20413;-76
2023/02/28 00:02:44;;;;;;;6.53;4.18;;;;;;;1.70;59.31;101671.41;5072424;28;20052;-76
2023/02/28 00:05:14;;;;;;;6.45;4.07;;;;;;;1.77;58.85;101674.09;5072926;28;20060;-76
2023/02/28 00:07:42;;;;;;;5.05;3.67;;;;;;;1.76;58.75;101672.41;5072377;28;20053;-76
2023/02/28 00:10:13;;;;;;;7.65;4.30;;;;;;;1.70;58.53;101668.66;5072942;28;20477;-76
2023/02/28 00:12:42;;;;;;;6.60;4.13;;;;;;;1.61;59.16;101670.00;5072558;28;20442;-76
2023/02/28 00:15:11;;;;;;;7.30;4.00;;;;;;;1.56;59.09;101673.44;5072722;28;20064;-76
2023/02/28 00:17:39;;;;;;;5.87;3.93;;;;;;;1.55;59.21;101668.16;5072683;28;20071;-76
2023/02/28 00:20:08;;;;;;;6.90;4.13;;;;;;;1.49;59.20;101672.66;5072403;28;20990;-76
2023/02/28 00:22:35;;;;;;;5.83;3.70;;;;;;;1.39;59.28;101673.16;5072578;28;20060;-76
2023/02/28 00:25:03;;;;;;;5.28;3.67;;;;;;;1.37;59.65;101677.19;5072604;28;20056;-76
2023/02/28 00:27:30;;;;;;;6.35;4.13;;;;;;;1.26;59.87;101673.25;5072499;28;20049;-76
2023/02/28 00:29:59;;;;;;;8.38;4.38;;;;;;;1.25;59.87;101668.00;5072159;28;20060;-75
2023/02/28 00:32:26;;;;;;;7.45;4.43;;;;;;;1.17;60.12;101666.34;5072513;28;20504;-75
2023/02/28 00:34:53;;;;;;;6.32;4.38;;;;;;;1.11;60.07;101665.31;5072490;28;20504;-75
2023/02/28 00:37:21;;;;;;;7.78;4.40;;;;;;;1.02;60.13;101666.66;5076514;28;20408;-76
2023/02/28 00:39:48;;;;;;;6.47;4.53;;;;;;;1.01;59.99;101670.50;5076316;28;20056;-76
2023/02/28 00:42:15;;;;;;;6.82;4.50;;;;;;;0.92;60.44;101672.63;5076404;28;20473;-76
2023/02/28 00:44:42;;;;;;;6.65;4.82;;;;;;;0.89;59.83;101666.75;5076295;28;20064;-76
2023/02/28 00:47:11;;;;;;;7.00;4.32;;;;;;;0.79;60.58;101668.06;5075765;28;20057;-76
2023/02/28 00:49:38;;;;;;;7.90;4.47;;;;;;;0.70;60.66;101663.91;5076038;28;20056;-76
2023/02/28 00:52:05;;;;;;;6.60;4.60;;;;;;;0.63;60.61;101668.59;5075560;28;20045;-76
2023/02/28 00:54:32;;;;;;;7.10;4.25;;;;;;;0.54;61.15;101675.38;5075744;28;20068;-76
2023/02/28 00:57:00;;;;;;;6.65;4.60;;;;;;;0.54;61.26;101669.91;5076085;28;20056;-76
2023/02/28 00:59:27;;;;;;;8.57;4.70;;;;;;;0.48;61.07;101678.97;5076042;28;20057;-75
2023/02/28 01:01:54;;;;;;;7.60;4.40;;;;;;;0.42;60.50;101679.84;5075538;28;20398;-75
2023/02/28 01:04:23;;;;;;;6.13;4.40;;;;;;;0.36;61.15;101673.34;5076112;28;20485;-76
2023/02/28 01:07:00;;;;;;;6.82;4.43;;;;;;;0.25;61.36;101674.84;5075881;28;20052;-76
2023/02/28 01:09:27;;;;;;;7.05;4.25;;;;;;;0.28;61.01;101677.19;5068889;28;20052;-76
2023/02/28 01:11:54;;;;;;;6.85;4.70;;;;;;;0.25;61.93;101677.59;5074810;28;20052;-76
2023/02/28 01:14:21;;;;;;;7.10;4.65;;;;;;;0.22;61.45;101678.03;5067639;28;20059;-76
2023/02/28 01:16:48;;;;;;;6.00;4.22;;;;;;;0.22;62.51;101674.47;5075712;28;20061;-77
2023/02/28 01:19:16;;;;;;;7.53;4.93;;;;;;;0.16;62.32;101678.91;5075996;28;20052;-76
2023/02/28 01:21:47;;;;;;;6.72;4.70;;;;;;;0.15;62.45;101674.50;5075656;28;20061;-76
2023/02/28 01:24:15;;;;;;;7.53;4.47;;;;;;;0.10;62.22;101675.09;5075397;28;20060;-76
2023/02/28 01:26:43;;;;;;;7.25;4.40;;;;;;;0.06;62.38;101673.84;5074212;28;20060;-76
2023/02/28 01:29:10;;;;;;;7.72;4.57;;;;;;;0.07;62.83;101671.97;5067187;28;20048;-76
2023/02/28 01:31:41;;;;;;;7.65;4.70;;;;;;;0.03;62.35;101665.25;5055144;28;20060;-76
2023/02/28 01:34:08;;;;;;;5.70;4.20;;;;;;;-0.03;62.43;101673.25;5055710;28;20049;-76
2023/02/28 01:36:36;;;;;;;7.13;4.18;;;;;;;-0.08;63.05;101664.00;5055364;28;20382;-75
2023/02/28 01:39:04;;;;;;;7.65;4.45;;;;;;;-0.09;63.05;101668.63;5047403;28;20048;-77
2023/02/28 01:41:34;;;;;;;8.52;4.70;;;;;;;-0.10;63.11;101668.88;5055220;28;20084;-76
2023/02/28 01:44:06;;;;;;;7.30;4.60;;;;;;;-0.12;63.44;101666.34;5047217;28;20049;-76
2023/02/28 01:46:38;;;;;;;7.38;4.75;;;;;;;-0.14;63.30;101667.59;5054447;28;20064;-76
2023/02/28 01:49:09;;;;;;;9.13;5.28;;;;;;;-0.22;62.96;101661.28;5053355;28;20392;-76
2023/02/28 01:51:45;;;;;;;9.43;5.32;;;;;;;-0.23;63.04;101658.78;5074512;28;20056;-76
2023/02/28 01:54:17;;;;;;;8.30;5.90;;;;;;;-0.26;63.03;101660.03;5075337;28;20060;-76
2023/02/28 01:56:50;;;;;;;7.20;4.88;;;;;;;-0.26;63.25;101660.03;5075170;28;20087;-77
2023/02/28 01:59:23;;;;;;;6.85;4.70;;;;;;;-0.30;63.49;101663.41;5074872;28;20079;-76
2023/02/28 02:01:50;;;;;;;6.97;5.22;;;;;;;-0.35;62.84;101658.56;5074878;28;20059;-69
2023/02/28 02:04:19;;;;;;;10.65;5.20;;;;;;;-0.37;63.99;101657.13;5074629;28;20064;-70
2023/02/28 02:06:49;;;;;;;7.68;5.03;;;;;;;-0.41;64.05;101653.94;5074921;28;20075;-70
2023/02/28 02:09:17;;;;;;;8.15;5.47;;;;;;;-0.42;64.02;101655.84;5074677;28;20048;-70
2023/02/28 02:11:46;;;;;;;8.18;4.88;;;;;;;-0.49;64.11;101657.75;5074676;28;20067;-70
2023/02/28 02:14:36;;;;;;;7.00;4.55;;;;;;;-0.46;64.39;101656.50;5066643;28;20072;-70
2023/02/28 02:17:15;;;;;;;7.07;4.63;;;;;;;-0.53;64.66;101648.25;5074602;28;20485;-70
2023/02/28 02:20:13;;;;;;;6.68;4.93;;;;;;;-0.56;63.73;101654.19;5074266;28;20052;-69
2023/02/28 02:23:31;;;;;;;8.23;5.60;;;;;;;-0.59;64.81;101649.09;5030691;28;20056;-70
2023/02/28 02:26:21;;;;;;;7.53;4.95;;;;;;;-0.65;64.25;101639.00;5069411;28;20060;-70
2023/02/28 02:28:59;;;;;;;;;;;;;;;-0.67;64.84;101646.63;5066799;28;20055;-71
2023/02/28 02:31:49;;;;;;;7.55;5.15;;;;;;;-0.73;64.97;101642.81;5074017;28;19920;-71
2023/02/28 02:34:30;;;;;;;;;;;;;;;-0.73;64.01;101650.19;5071143;28;20063;-70
2023/02/28 02:37:09;;;;;;;8.23;4.95;;;;;;;-0.75;63.92;101638.63;5073967;28;19927;-70
2023/02/28 02:39:46;;;;;;;9.27;5.00;;;;;;;-0.76;64.12;101654.16;5074092;28;20080;-69
2023/02/28 02:42:18;;;;;;;8.63;4.85;;;;;;;-0.74;64.32;101645.75;5073997;28;20069;-69
2023/02/28 02:44:53;;;;;;;7.72;5.03;;;;;;;-0.76;64.95;101650.59;5074497;28;20056;-70
2023/02/28 02:47:25;;;;;;;7.75;4.65;;;;;;;-0.78;64.86;101648.06;5070252;28;20057;-69
2023/02/28 02:49:57;;;;;;;8.05;4.75;;;;;;;-0.76;64.86;101650.59;5070290;28;20053;-69
2023/02/28 02:52:30;;;;;;;7.22;4.68;;;;;;;-0.78;64.76;101648.06;5073646;28;20052;-70
2023/02/28 02:55:00;;;;;;;7.65;4.97;;;;;;;-0.80;64.05;101650.16;5073348;28;20059;-70
2023/02/28 02:57:32;;;;;;;10.43;5.18;;;;;;;-0.84;64.64;101646.16;5069002;28;20064;-70
2023/02/28 03:00:08;;;;;;;5.03;4.43;;;;;;;-0.89;64.55;101659.63;5071862;28;20094;-70
2023/02/28 03:02:40;;;;;;;9.02;4.57;;;;;;;-0.91;64.81;101656.28;5073496;28;20061;-69
2023/02/28 03:05:18;;;;;;;7.30;4.50;;;;;;;-0.92;64.25;101654.59;5073184;28;20421;-69
2023/02/28 03:07:45;;;;;;;7.75;4.93;;;;;;;-0.96;64.11;101653.34;5066394;28;20060;-70
2023/02/28 03:10:30;;;;;;;7.18;4.32;;;;;;;-0.96;64.44;101659.63;5072656;28;20048;-69
2023/02/28 03:13:31;;;;;;;6.50;4.43;;;;;;;-0.97;64.74;101654.38;5065339;28;20053;-69
2023/02/28 03:16:13;;;;;;;7.20;4.18;;;;;;;-1.02;64.88;101652.25;5026117;28;20516;-69
2023/02/28 03:18:54;;;;;;;6.60;4.47;;;;;;;-1.04;65.08;101651.63;5065279;28;20068;-69
2023/02/28 03:21:32;;;;;;;7.38;4.75;;;;;;;-1.06;65.03;101651.81;5073302;28;20056;-69
2023/02/28 03:24:05;;;;;;;8.30;4.78;;;;;;;-1.05;64.69;101653.53;5065081;28;20060;-69
2023/02/28 03:26:37;;;;;;;7.50;5.13;;;;;;;-1.05;64.14;101652.66;5073257;28;20083;-69
2023/02/28 03:29:12;;;;;;;8.43;5.32;;;;;;;-1.05;64.47;101649.94;5064878;28;20056;-69
2023/02/28 03:31:42;;;;;;;7.22;4.13;;;;;;;-1.06;63.96;101640.06;5073120;28;20060;-69
2023/02/28 03:34:15;;;;;;;7.82;4.38;;;;;;;-1.08;64.90;101644.88;5064881;28;20055;-69
2023/02/28 03:36:48;;;;;;;6.55;3.70;;;;;;;-1.05;63.89;101649.94;5072751;28;20060;-69
2023/02/28 03:39:21;;;;;;;5.60;3.95;;;;;;;-1.09;63.89;101654.13;5064769;28;20064;-69
2023/02/28 03:41:55;;;;;;;6.28;4.75;;;;;;;-1.07;64.71;101649.28;5072951;28;20429;-69
2023/02/28 03:44:26;;;;;;;6.25;4.30;;;;;;;-1.11;64.73;101645.31;5072871;28;20060;-69
2023/02/28 03:46:59;;;;;;;8.38;4.05;;;;;;;-1.11;63.95;101648.88;5072403;28;20063;-69
2023/02/28 03:49:34;;;;;;;6.57;4.20;;;;;;;-1.11;63.59;101650.78;5065305;28;20056;-69
2023/02/28 03:52:07;;;;;;;7.03;4.80;;;;;;;-1.12;64.10;101654.56;5072413;28;20409;-69
2023/02/28 03:54:40;;;;;;;8.35;4.50;;;;;;;-1.13;63.51;101652.88;5072782;28;20068;-69
2023/02/28 03:57:21;;;;;;;6.68;4.50;;;;;;;-1.18;63.51;101652.66;5073129;28;20064;-69
2023/02/28 03:59:55;;;;;;;8.05;4.75;;;;;;;-1.19;63.62;101649.09;5073189;28;20052;-76
2023/02/28 04:02:22;;;;;;;6.70;4.90;;;;;;;-1.19;64.29;101656.44;5072714;28;20052;-76
2023/02/28 04:04:50;;;;;;;7.20;4.63;;;;;;;-1.19;64.51;101653.72;5072685;28;20063;-75
2023/02/28 04:07:19;;;;;;;7.35;4.78;;;;;;;-1.25;64.55;101658.94;5072705;28;20059;-76
2023/02/28 04:09:46;;;;;;;8.20;5.18;;;;;;;-1.25;63.60;101656.22;5071861;28;20504;-76
2023/02/28 04:12:13;;;;;;;10.15;5.68;;;;;;;-1.28;64.49;101650.31;5069169;28;20069;-76
2023/02/28 04:14:41;;;;;;;6.90;4.97;;;;;;;-1.32;64.35;101655.38;5067234;28;20166;-75
2023/02/28 04:17:11;;;;;;;6.65;4.90;;;;;;;-1.34;64.75;101657.47;5072101;28;20068;-76
2023/02/28 04:19:38;;;;;;;;;;;;;;;-1.35;64.23;101658.50;5073990;28;20059;-75
2023/02/28 04:22:06;;;;;;;7.20;4.32;;;;;;;-1.37;64.42;101662.50;5072997;28;20396;-75
2023/02/28 04:24:34;;;;;;;6.80;4.70;;;;;;;-1.37;64.62;101665.22;5072889;28;20064;-75
2023/02/28 04:27:04;;;;;;;9.02;5.10;;;;;;;-1.40;64.00;101662.91;5072295;28;20068;-75
2023/02/28 04:29:34;;;;;;;9.90;4.78;;;;;;;-1.41;64.47;101663.94;5072585;28;20056;-76
2023/02/28 04:32:02;;;;;;;6.97;4.72;;;;;;;-1.45;64.18;101655.31;5072506;28;20425;-75
2023/02/28 04:34:31;;;;;;;8.23;4.10;;;;;;;-1.47;64.01;101658.28;5072394;28;20068;-77
2023/02/28 04:37:00;;;;;;;5.82;4.38;;;;;;;-1.48;64.40;101655.72;5072438;28;20386;-75
2023/02/28 04:39:27;;;;;;;6.60;4.30;;;;;;;-1.50;63.79;101660.56;5072624;28;20068;-76
2023/02/28 04:41:56;;;;;;;6.10;3.85;;;;;;;-1.51;64.20;101665.19;5072084;28;20052;-76
2023/02/28 04:44:24;;;;;;;5.87;4.90;;;;;;;-1.54;64.11;101665.59;5072530;28;20056;-76
2023/02/28 04:46:51;;;;;;;6.80;4.53;;;;;;;-1.56;64.61;101664.94;5071890;28;20065;-76
2023/02/28 04:49:18;;;;;;;7.57;4.32;;;;;;;-1.55;64.49;101663.91;5064052;28;20056;-76
2023/02/28 04:51:45;;;;;;;5.97;4.13;;;;;;;-1.56;64.87;101658.66;5071902;28;20052;-75
2023/02/28 04:54:13;;;;;;;5.78;4.47;;;;;;;-1.54;65.16;101667.47;5072475;28;20078;-76
2023/02/28 04:56:40;;;;;;;6.90;4.60;;;;;;;-1.55;64.79;101671.28;5072299;28;20057;-76
2023/02/28 04:59:08;;;;;;;7.15;4.35;;;;;;;-1.59;64.14;101664.53;5064097;28;20083;-76
2023/02/28 05:01:36;;;;;;;7.18;3.90;;;;;;;-1.60;64.21;101665.56;5072186;28;20056;-76
2023/02/28 05:04:05;;;;;;;7.18;4.15;;;;;;;-1.52;65.30;101665.38;5071707;28;20053;-76
2023/02/28 05:06:34;;;;;;;6.13;4.13;;;;;;;-1.45;65.29;101669.84;5072129;28;20056;-75
2023/02/28 05:09:02;;;;;;;5.72;4.03;;;;;;;-1.53;65.13;101671.91;5072456;28;20063;-75
2023/02/28 05:11:34;;;;;;;6.10;3.78;;;;;;;-1.52;64.54;101677.16;5071972;28;20053;-76
2023/02/28 05:14:02;;;;;;;6.15;3.95;;;;;;;-1.55;63.73;101674.00;5072359;28;20059;-76
2023/02/28 05:16:37;;;;;;;7.18;4.65;;;;;;;-1.59;63.67;101675.47;5072257;28;20060;-75
2023/02/28 05:19:05;;;;;;;7.10;4.15;;;;;;;-1.66;64.18;101681.75;5071757;28;20056;-75
2023/02/28 05:21:34;;;;;;;5.68;3.47;;;;;;;-1.66;63.42;101684.47;5073616;28;20059;-75
2023/02/28 05:24:03;;;;;;;6.95;3.35;;;;;;;-1.71;63.43;101677.91;5068128;28;20068;-76
2023/02/28 05:26:32;;;;;;;7.53;4.20;;;;;;;-1.72;63.85;101681.69;5075847;28;20056;-76
2023/02/28 05:28:59;;;;;;;6.65;4.25;;;;;;;-1.77;63.05;101682.28;5076124;28;20056;-76
2023/02/28 05:31:27;;;;;;;6.60;3.72;;;;;;;-1.87;63.36;101684.56;5076001;28;20059;-75
2023/02/28 05:33:56;;;;;;;6.75;4.22;;;;;;;-1.91;62.76;101691.47;5075121;28;20061;-77
2023/02/28 05:36:28;;;;;;;5.47;3.80;;;;;;;-1.92;62.79;101684.31;5075644;28;20057;-76
2023/02/28 05:38:58;;;;;;;5.35;3.47;;;;;;;-1.95;62.86;101687.44;5067192;28;20053;-76
2023/02/28 05:41:25;;;;;;;5.03;3.90;;;;;;;-2.06;63.31;101680.66;5075527;28;20067;-76
2023/02/28 05:43:58;;;;;;;6.28;4.07;;;;;;;-2.17;63.18;101687.53;5075458;28;20056;-76
2023/02/28 05:49:43;;;;;;;6.85;4.68;;;;;;;-2.22;63.39;101697.38;5060715;28;20056;-77
2023/02/28 05:58:12;;;;;;;6.75;3.85;;;;;;;-2.25;63.45;101693.16;4977026;28;20054;-76
2023/02/28 06:00:43;;;;;;;5.50;3.90;;;;;;;-2.31;63.08;101683.03;5046431;28;20053;-76
2023/02/28 06:03:22;;;;;;;4.90;3.45;;;;;;;-2.31;63.61;101688.47;5056390;28;20532;-76
2023/02/28 06:05:54;;;;;;;5.22;3.72;;;;;;;-2.32;63.56;101697.72;5056031;28;20520;-76
2023/02/28 06:08:22;;;;;;;9.77;5.28;;;;;;;-2.35;63.27;101695.38;5055464;28;20052;-76
2023/02/28 06:10:50;;;;;;;7.45;5.47;;;;;;;-2.31;63.34;101693.94;5055436;28;20053;-76
2023/02/28 06:13:32;;;;;;;6.57;4.85;;;;;;;-2.32;63.84;101704.00;5056470;28;20060;-76
2023/02/28 06:16:15;;;;;;;7.70;5.40;;;;;;;-2.36;63.22;101702.72;5055626;28;20061;-76
2023/02/28 06:18:52;;;;;;;7.22;4.63;;;;;;;-2.36;63.32;101710.06;5056139;28;20056;-76
2023/02/28 06:27:17;;;;;;;6.07;4.10;;;;;;;-2.46;63.63;101719.47;5031338;28;20076;-77
2023/02/28 06:29:55;;;;;;;6.72;4.57;;;;;;;-2.49;63.96;101721.72;5048592;28;20409;-77
2023/02/28 06:35:41;;;;;;;8.10;4.97;;;;;;;-2.39;64.00;101729.56;5044046;28;20053;-77
2023/02/28 06:38:19;;;;;;;6.45;3.90;;;;;;;-2.19;63.70;101721.53;5052094;28;20505;-76
2023/02/28 06:47:07;;;;;;;4.60;3.30;;;;;;;-1.85;63.13;101727.03;4964057;28;20052;-77
2023/02/28 06:52:44;;;;;;;5.85;3.60;;;;;;;-1.84;62.46;101728.69;5032148;28;20059;-76
2023/02/28 06:55:34;;;;;;;7.03;3.53;;;;;;;-1.64;62.58;101727.94;5056514;28;20057;-77
2023/02/28 07:00:52;;;;;;;3.00;2.55;;;;;;;1.17;59.24;101719.31;5056394;28;20068;-76
2023/02/28 07:03:20;;;;;;;4.25;2.70;;;;;;;2.51;56.65;101715.34;5056983;28;20060;-77
2023/02/28 07:05:57;;;;;;;4.65;3.17;;;;;;;3.79;53.36;101713.28;5056397;28;20096;-77
2023/02/28 07:11:19;;;;;;;5.10;2.70;;;;;;;3.94;49.63;101721.91;5047336;28;20410;-77
2023/02/28 07:13:54;;;;;;;3.83;2.60;;;;;;;3.77;48.89;101716.25;5057289;28;20053;-76
2023/02/28 07:16:25;;;;;;;4.18;2.50;;;;;;;3.53;48.54;101728.31;5050007;28;20057;-77
2023/02/28 07:19:26;;;;;;;4.28;2.78;;;;;;;4.31;47.10;101727.19;5057385;28;20064;-76
2023/02/28 07:22:01;;;;;;;5.07;2.90;;;;;;;5.58;45.64;101725.25;5028541;28;20064;-77
2023/02/28 07:24:49;;;;;;;4.57;2.70;;;;;;;7.26;42.27;101720.38;5056136;28;20498;-77
2023/02/28 07:27:23;;;;;;;5.53;2.90;;;;;;;7.20;42.06;101718.69;5056792;28;20064;-75
2023/02/28 07:33:59;;;;;;;8.13;6.45;;;;;;;6.07;43.59;101739.34;5047505;28;20509;-75
2023/02/28 07:36:28;;;;;;;5.78;5.15;;;;;;;6.22;43.62;101733.22;5056033;28;20053;-76
2023/02/28 07:39:14;;;;;;;5.75;4.20;;;;;;;6.31;43.75;101733.63;5057978;28;20053;-75
2023/02/28 07:49:13;;;;;;;12.27;7.03;;;;;;;7.62;41.76;101729.06;4959192;28;20061;-77
2023/02/28 07:51:54;;;;;;;8.45;5.18;;;;;;;7.08;41.83;101720.75;4917270;29;20060;-76
2023/02/28 07:54:34;;;;;;;17.30;13.15;;;;;;;7.14;41.98;101719.72;4919482;29;20071;-77
2023/02/28 07:57:44;;;;;;;14.32;9.82;;;;;;;6.99;41.99;101723.16;5016898;28;20421;-77
2023/02/28 08:00:40;;;;;;;14.38;5.55;;;;;;;6.89;41.69;101734.94;5053284;28;20053;-76
2023/02/28 08:06:29;;;;;;;8.18;3.70;;;;;;;6.88;42.64;101724.94;5057607;28;20072;-76
2023/02/28 08:09:08;;;;;;;9.38;4.30;;;;;;;6.95;42.99;101732.22;5057474;28;20057;-77
2023/02/28 08:14:36;;;;;;;;;;;;;;;;;;;;;
2023/02/28 08:17:11;;;;;;;7.75;4.82;;;;;;;6.53;44.10;101732.81;5054766;28;20060;-76
2023/02/28 08:19:39;;;;;;;8.30;4.78;;;;;;;6.45;44.49;101732.16;5055486;28;20053;-76
2023/02/28 08:25:08;;;;;;;8.60;5.60;;;;;;;6.56;44.73;101732.31;5048417;28;20079;-76
2023/02/28 08:30:50;;;;;;;10.43;5.82;;;;;;;8.17;41.65;101729.75;5054362;28;20076;-76
2023/02/28 08:33:19;;;;;;;7.78;5.13;;;;;;;8.27;41.75;101734.53;5054367;28;20053;-76
2023/02/28 08:35:47;;;;;;;7.13;4.63;;;;;;;8.02;42.15;101736.03;5054581;28;20057;-76
2023/02/28 08:47:57;;;;;;;5.88;4.20;;;;;;;7.27;42.76;101738.69;5049118;28;20057;-77
2023/02/28 08:57:33;;;;;;;6.95;4.20;;;;;;;6.89;43.33;101737.72;5016972;28;20059;-75
2023/02/28 09:07:36;;;;;;;5.35;4.63;;;;;;;8.24;41.79;101730.34;5063183;28;20048;-76
2023/02/28 09:10:20;;;;;;;8.07;4.72;;;;;;;9.42;40.77;101730.84;5014191;28;20056;-76
2023/02/28 09:12:55;;;;;;;6.93;4.80;;;;;;;9.67;39.60;101734.78;5060928;28;20060;-76
2023/02/28 09:18:42;;;;;;;8.63;4.95;;;;;;;9.40;38.46;101729.44;4999598;28;20058;-76
2023/02/28 09:21:20;;;;;;;7.30;5.20;;;;;;;8.96;39.75;101732.66;5058359;28;20053;-76
2023/02/28 09:23:55;;;;;;;9.90;5.22;;;;;;;8.75;40.17;101740.91;5059898;28;20490;-76
2023/02/28 09:26:25;;;;;;;6.78;4.80;;;;;;;8.57;40.59;101733.03;5059588;28;20049;-76
2023/02/28 09:28:56;;;;;;;;;;;;;;;8.29;40.27;101729.53;5059625;28;20053;-76
2023/02/28 09:32:05;;;;;;;6.63;4.60;;;;;;;8.63;39.63;101723.63;5059269;28;19920;-77
2023/02/28 09:35:02;;;;;;;7.53;4.38;;;;;;;8.66;40.29;101728.66;5047253;28;20061;-75
2023/02/28 09:43:35;;;;;;;7.20;4.13;;;;;;;9.66;36.98;101731.16;4977774;28;20476;-75
2023/02/28 09:49:46;;;;;;;5.97;3.60;;;;;;;10.30;35.99;101731.69;5055924;28;20482;-77
2023/02/28 09:56:29;;;;;;;4.60;2.47;;;;;;;17.41;25.73;101712.56;4966705;28;20162;-76
2023/02/28 09:59:02;;;;;;;4.43;2.40;;;;;;;15.62;26.41;101714.72;4992700;28;20062;-76
2023/02/28 10:01:38;;;;;;;3.97;2.53;;;;;;;14.68;26.93;101719.91;5059536;28;20083;-77
2023/02/28 10:07:34;;;;;;;3.15;2.25;;;;;;;16.33;26.35;101711.25;5046423;28;20064;-76
2023/02/28 10:13:28;;;;;;;4.22;2.65;;;;;;;24.81;17.39;101682.88;5017451;28;20057;-76
2023/02/28 10:22:48;;;;;;;3.55;2.20;;;;;;;22.35;18.50;101685.81;5048738;28;20052;-76
2023/02/28 10:28:34;;;;;;;3.13;2.22;;;;;;;25.72;16.03;101677.22;5055242;28;20052;-76
2023/02/28 10:31:11;;;;;;;3.97;2.00;;;;;;;23.84;16.08;101680.34;5059077;28;20080;-77
2023/02/28 10:37:48;;;;;;;4.55;2.03;;;;;;;27.73;13.64;101661.66;5062856;28;20048;-76
2023/02/28 10:54:44;;;;;;;2.30;1.65;;;;;;;35.98;8.67;101638.50;5059950;28;20120;-76
2023/02/28 11:00:25;;;;;;;2.50;1.63;;;;;;;32.82;9.63;101641.91;5081185;28;20424;-77
2023/02/28 11:03:43;;;;;;;;;;;;;;;;;;;;;
2023/02/28 11:06:36;;;;;;;3.25;1.77;;;;;;;33.39;9.52;101637.91;5093091;28;20052;-75
2023/02/28 11:12:59;;;;;;;3.03;1.73;;;;;;;36.96;8.23;101630.22;5034160;28;20060;-76
2023/02/28 11:29:49;;;;;;;2.30;1.90;;;;;;;37.65;7.81;101629.28;5021237;28;20060;-76
2023/02/28 11:32:20;;;;;;;4.50;2.17;;;;;;;38.86;7.05;101615.91;5073438;28;20501;-76
2023/02/28 11:46:58;;;;;;;2.17;1.80;;;;;;;41.11;5.87;101615.53;5094257;28;20044;-76
2023/02/28 11:59:57;;;;;;;;;;;;;;;40.75;6.17;101605.81;5013710;28;20062;-76
2023/02/28 12:05:26;;;;;;;2.38;1.70;;;;;;;40.17;6.53;101601.31;5058198;28;20057;-76
2023/02/28 12:08:46;;;;;;;2.50;2.13;;;;;;;41.30;6.38;101597.84;5073565;28;20516;-77
2023/02/28 12:11:26;;;;;;;2.08;1.65;;;;;;;41.11;5.92;101592.16;5074083;28;20422;-76
2023/02/28 12:21:25;;;;;;;2.40;1.60;;;;;;;39.62;6.42;101592.81;5028391;28;20422;-75
2023/02/28 12:24:31;;;;;;;4.53;1.90;;;;;;;40.52;6.49;101586.19;5074176;28;20067;-76
2023/02/28 12:27:20;;;;;;;2.38;1.77;;;;;;;40.66;6.65;101591.25;5075080;28;20497;-76
2023/02/28 12:30:18;;;;;;;;;;;;;;;;;;;;;
2023/02/28 12:33:03;;;;;;;3.03;1.90;;;;;;;41.22;6.47;101567.38;5061883;28;20063;-76
2023/02/28 12:35:44;;;;;;;2.20;2.00;;;;;;;41.56;5.50;101572.50;5078853;28;20061;-76
2023/02/28 12:38:17;;;;;;;2.67;1.92;;;;;;;40.23;6.34;101570.13;5078939;28;20056;-77
2023/02/28 12:40:50;;;;;;;3.50;1.63;;;;;;;34.15;8.16;101561.88;5077964;28;20060;-76
2023/02/28 12:46:12;;;;;;;2.63;2.15;;;;;;;37.58;7.27;101551.06;5075123;28;20056;-76
2023/02/28 12:51:53;;;;;;;2.83;2.30;;;;;;;38.54;7.22;101542.44;5071851;28;20127;-76
2023/02/28 12:54:28;;;;;;;4.85;2.08;;;;;;;39.16;7.02;101547.88;5077558;28;20048;-76
2023/02/28 13:00:56;;;;;;;3.33;2.30;;;;;;;38.73;6.96;101546.97;5078275;28;20063;-75
2023/02/28 13:04:03;;;;;;;3.95;2.70;;;;;;;38.14;7.45;101544.16;5078223;28;20069;-76
2023/02/28 13:06:59;;;;;;;2.83;2.55;;;;;;;37.88;7.53;101526.13;5028131;28;20083;-76
2023/02/28 13:09:31;;;;;;;3.08;2.85;;;;;;;38.70;7.36;101530.47;5077775;28;20096;-76
2023/02/28 13:12:20;;;;;;;3.30;2.20;;;;;;;38.96;6.64;101521.41;5077223;28;20063;-75
2023/02/28 13:34:21;;;;;;;3.33;3.03;;;;;;;36.37;8.37;101517.44;5092029;28;20055;-75
2023/02/28 13:37:45;;;;;;;2.80;2.58;;;;;;;36.33;8.04;101505.16;5077973;28;20515;-75
2023/02/28 13:47:30;;;;;;;3.78;2.25;;;;;;;32.10;9.99;101505.56;4938514;28;20514;-75
2023/02/28 13:50:18;;;;;;;3.97;2.50;;;;;;;30.54;11.12;101508.19;5034201;28;20411;-76
2023/02/28 13:52:58;;;;;;;5.50;2.38;;;;;;;29.94;11.39;101510.41;5033687;28;20052;-77
2023/02/28 13:55:32;;;;;;;4.53;2.50;;;;;;;29.16;12.05;101505.97;5083191;28;20052;-76
2023/02/28 14:05:19;;;;;;;2.78;2.08;;;;;;;24.88;13.81;101502.59;4953291;28;20545;-76
2023/02/28 14:07:51;;;;;;;3.78;2.40;;;;;;;24.37;14.70;101506.78;4977218;28;20078;-76
2023/02/28 14:10:57;;;;;;;;;;;;;;;;;;;;;
2023/02/28 14:16:49;;;;;;;2.17;1.92;;;;;;;23.17;15.32;101499.41;5074807;28;20064;-76
2023/02/28 14:25:47;;;;;;;3.10;2.38;;;;;;;22.01;16.97;101500.88;5054292;28;20396;-76
2023/02/28 14:28:28;;;;;;;3.08;2.05;;;;;;;21.74;16.51;101508.28;5100242;28;20060;-76
2023/02/28 14:35:02;;;;;;;3.25;2.50;;;;;;;20.21;18.04;101514.75;5095712;28;20056;-75
2023/02/28 14:37:38;;;;;;;4.18;2.90;;;;;;;19.75;18.02;101511.22;4974913;28;20073;-76
2023/02/28 14:40:16;;;;;;;4.38;3.05;;;;;;;19.44;19.15;101509.75;5096160;28;20052;-76
2023/02/28 14:43:19;;;;;;;2.75;2.13;;;;;;;19.37;18.50;101519.94;5095962;28;20060;-75
2023/02/28 14:46:04;;;;;;;3.33;2.40;;;;;;;19.13;19.70;101510.22;5100000;28;20048;-76
2023/02/28 14:48:37;;;;;;;3.40;2.28;;;;;;;19.01;20.13;101499.69;5097915;28;20056;-77
2023/02/28 14:51:08;;;;;;;3.72;2.72;;;;;;;18.83;20.61;101506.69;5099964;28;20436;-76
2023/02/28 14:53:41;;;;;;;3.53;2.60;;;;;;;18.74;19.90;101515.19;5097647;28;20055;-77
2023/02/28 14:56:21;;;;;;;3.33;2.63;;;;;;;18.70;20.31;101510.59;5097492;28;20063;-76
2023/02/28 14:59:02;;;;;;;4.13;2.45;;;;;;;18.59;19.99;101505.34;5096531;28;20056;-76
2023/02/28 15:01:42;;;;;;;2.83;2.42;;;;;;;18.39;20.49;101508.97;5096894;28;20067;-76
2023/02/28 15:07:20;;;;;;;;;;;;;;;;;;;;;
2023/02/28 15:13:40;;;;;;;4.22;2.78;;;;;;;16.81;22.54;101514.31;5095079;27;20059;-76
2023/02/28 15:19:03;;;;;;;4.82;3.00;;;;;;;16.07;22.88;101506.75;5068937;27;20063;-76
2023/02/28 15:24:49;;;;;;;7.97;4.72;;;;;;;15.28;23.62;101499.94;5096834;28;20056;-76
2023/02/28 15:27:23;;;;;;;4.35;3.22;;;;;;;14.96;24.03;101507.47;5065080;28;20056;-76
2023/02/28 15:29:55;;;;;;;4.25;3.28;;;;;;;14.68;24.67;101500.31;5096650;28;20056;-76
2023/02/28 15:35:28;;;;;;;3.03;2.40;;;;;;;14.28;25.28;101509.34;5064688;28;20047;-76
2023/02/28 15:37:58;;;;;;;3.72;3.00;;;;;;;14.17;25.76;101507.91;5095753;28;20055;-76
2023/02/28 15:40:30;;;;;;;3.85;2.90;;;;;;;13.99;25.59;101513.31;5096013;28;20413;-77
2023/02/28 15:43:09;;;;;;;5.82;2.97;;;;;;;13.81;25.66;101506.66;5096945;28;20051;-77
2023/02/28 15:48:36;;;;;;;4.30;3.60;;;;;;;13.40;25.84;101501.88;5101628;28;20516;-77
2023/02/28 15:51:10;;;;;;;5.88;3.67;;;;;;;13.18;26.23;101505.31;5094351;28;20063;-76
2023/02/28 15:53:48;;;;;;;3.90;3.10;;;;;;;12.94;27.02;101508.25;5094154;28;20059;-76
2023/02/28 15:56:28;;;;;;;4.13;3.05;;;;;;;12.77;27.60;101516.38;5101036;28;20060;-77
2023/02/28 15:59:06;;;;;;;3.70;2.85;;;;;;;12.65;27.69;101518.78;5100663;28;20051;-76
2023/02/28 16:01:37;;;;;;;3.15;2.42;;;;;;;12.55;27.94;101516.97;5096257;28;20075;-77
2023/02/28 16:04:14;;;;;;;4.20;2.70;;;;;;;12.41;28.05;101516.91;5094790;28;20060;-76
2023/02/28 16:06:42;;;;;;;3.60;2.65;;;;;;;12.19;28.33;101515.50;5092832;28;20516;-76
2023/02/28 16:09:20;;;;;;;4.80;3.03;;;;;;;11.95;28.85;101521.13;5098735;28;20066;-77
2023/02/28 16:12:13;;;;;;;3.45;2.95;;;;;;;11.84;29.36;101527.91;5099464;28;20059;-76
2023/02/28 16:14:41;;;;;;;4.82;3.85;;;;;;;11.60;29.77;101527.91;5096270;28;20048;-76
2023/02/28 16:17:19;;;;;;;5.18;3.55;;;;;;;11.34;30.02;101532.94;5096637;28;20520;-75
2023/02/28 16:19:48;;;;;;;3.47;2.90;;;;;;;11.04;30.84;101525.66;5096014;28;20079;-76
2023/02/28 16:22:18;;;;;;;4.40;2.72;;;;;;;10.75;30.57;101537.59;5094650;28;20068;-76
2023/02/28 16:24:49;;;;;;;5.07;3.10;;;;;;;10.52;31.37;101531.63;5095939;28;20056;-76
2023/02/28 16:27:42;;;;;;;4.43;2.78;;;;;;;10.30;31.78;101533.97;5096403;28;20063;-75
2023/02/28 16:30:19;;;;;;;4.47;2.95;;;;;;;10.01;32.84;101537.41;5094689;28;20060;-76
2023/02/28 16:33:02;;;;;;;3.78;2.97;;;;;;;9.80;32.92;101542.22;5097166;28;20397;-75
2023/02/28 16:35:57;;;;;;;5.47;2.72;;;;;;;9.52;32.97;101540.91;5099838;28;20056;-76